»·PEaware :: BAW22 EGLL-KBOS

BAW22 :: EGLL-KBOS

FLIGHT INFORMATION

Flight Status: Arrived
Operator:
British Airways
More flights by this operator :: More flights under this callsign
Pilot: Kyle K. (11122)
Aircraft: BOEING 767-300
(B763)
More flights by this aircraft type
Origin: EGLL Heathrow
United Kingdom
Destination: KBOS Logan Intl
United States
More flights between these airports :: More routes between these airports
Route: CPT4K CPT UL9 GAVGO UL18 DIKAS UL9 STU CRK/M080F340 SOMAX 4920N 4730N 4640N 4550N/N0460F340 RAFIN/N0469F360 UAW YQI EURRO OOSHN5
File this flight plan on PilotEdge
Remarks:
Altitude:
(Current/Filed)
34,000ft
Speed:
(Current/Filed)
462kts
Departed: 03-Feb-18 02:13 PM
Arrived: 03-Feb-18 09:24 PM
Distance/Time
Traveled:
2827nm/7:11
Distance/Time
To Go:
Arrived

Flight Plot

Page will automatically refresh every two minutes.

Flight plan parsing failed; only flown route is shown


Map Options




Map Legend


Flown Route
Filed Route
Departure Airport
Arrival Airport
Navaid (VOR, NDB)
Fix

Horizontal Profiles

Position Reports

Time Latitude Longitude Heading Altitude Ground
Speed
03-Feb-18 14:18 51.549353 -1.574085 281 25733ft 469kts
03-Feb-18 14:19 51.571005 -1.769459 286 27409ft 480kts
03-Feb-18 14:20 51.599368 -1.975216 284 29164ft 491kts
03-Feb-18 14:21 51.627793 -2.182377 285 31344ft 486kts
03-Feb-18 14:22 51.655411 -2.381114 285 33215ft 481kts
03-Feb-18 14:23 51.683854 -2.581663 285 33876ft 480kts
03-Feb-18 14:24 51.710633 -2.776913 284 33885ft 478kts
03-Feb-18 14:25 51.737269 -2.975620 284 33889ft 481kts
03-Feb-18 14:26 51.764697 -3.183378 283 33913ft 489kts
03-Feb-18 14:27 51.791220 -3.392126 283 33912ft 488kts
03-Feb-18 14:28 51.817745 -3.602908 283 33913ft 488kts
03-Feb-18 14:29 51.844025 -3.811309 283 33910ft 488kts
03-Feb-18 14:30 51.870510 -4.024300 283 33911ft 488kts
03-Feb-18 14:31 51.896632 -4.237704 283 33911ft 488kts
03-Feb-18 14:32 51.922424 -4.451834 283 33929ft 488kts
03-Feb-18 14:33 51.947766 -4.665659 282 33973ft 488kts
03-Feb-18 14:34 51.972894 -4.881262 282 33991ft 488kts
03-Feb-18 14:35 51.988818 -5.098221 270 33994ft 489kts
03-Feb-18 14:36 51.982435 -5.318627 269 33991ft 490kts
03-Feb-18 14:37 51.975140 -5.539455 269 33993ft 490kts
03-Feb-18 14:38 51.967483 -5.758034 268 34061ft 490kts
03-Feb-18 14:39 51.956496 -5.978472 267 34075ft 490kts
03-Feb-18 14:40 51.947301 -6.198283 268 34073ft 490kts
03-Feb-18 14:41 51.938327 -6.417740 268 34070ft 490kts
03-Feb-18 14:42 51.928974 -6.637571 268 34073ft 490kts
03-Feb-18 14:43 51.919247 -6.856299 267 34089ft 490kts
03-Feb-18 14:44 51.909052 -7.075957 268 34133ft 490kts
03-Feb-18 14:45 51.898564 -7.293683 270 34144ft 482kts
03-Feb-18 14:46 51.887790 -7.509577 270 34151ft 483kts
03-Feb-18 14:47 51.876631 -7.724707 269 34149ft 483kts
03-Feb-18 14:48 51.865035 -7.940425 269 34152ft 484kts
03-Feb-18 14:49 51.853042 -8.156195 269 34147ft 483kts
03-Feb-18 14:50 51.840641 -8.372032 269 34153ft 484kts
03-Feb-18 14:51 51.810166 -8.583872 253 34158ft 494kts
03-Feb-18 14:52 51.761324 -8.786017 251 34152ft 495kts
03-Feb-18 14:53 51.710062 -8.991874 253 34154ft 495kts
03-Feb-18 14:54 51.658592 -9.196466 255 34152ft 493kts
03-Feb-18 14:55 51.606857 -9.400343 254 34150ft 493kts
03-Feb-18 14:56 51.554679 -9.603967 254 34153ft 493kts
03-Feb-18 14:57 51.502248 -9.806779 254 34153ft 495kts
03-Feb-18 14:58 51.449276 -10.009812 254 34156ft 494kts
03-Feb-18 14:59 51.395913 -10.212561 254 34161ft 494kts
03-Feb-18 15:00 51.342295 -10.414469 254 34164ft 494kts
03-Feb-18 15:01 51.288296 -10.616043 254 34176ft 494kts
03-Feb-18 15:02 51.234138 -10.816430 253 34168ft 495kts
03-Feb-18 15:03 51.178942 -11.018682 257 34183ft 499kts
03-Feb-18 15:04 51.123330 -11.221138 258 34188ft 500kts
03-Feb-18 15:05 51.067480 -11.422478 258 34189ft 499kts
03-Feb-18 15:06 51.011102 -11.624017 258 34193ft 498kts
03-Feb-18 15:07 50.954452 -11.824778 257 34198ft 501kts
03-Feb-18 15:08 50.898350 -12.021909 257 34199ft 499kts
03-Feb-18 15:09 50.841284 -12.220831 257 34168ft 500kts
03-Feb-18 15:10 50.783596 -12.420149 258 34179ft 497kts
03-Feb-18 15:11 50.725723 -12.618559 257 34178ft 498kts
03-Feb-18 15:12 50.667282 -12.817183 256 34172ft 502kts
03-Feb-18 15:13 50.608580 -13.015034 257 34177ft 500kts
03-Feb-18 15:14 50.550067 -13.213521 260 34185ft 502kts
03-Feb-18 15:15 50.490598 -13.411596 260 34186ft 501kts
03-Feb-18 15:16 50.430694 -13.608970 260 34180ft 503kts
03-Feb-18 15:17 50.370264 -13.806390 259 34188ft 504kts
03-Feb-18 15:18 50.309487 -14.003329 259 34192ft 503kts
03-Feb-18 15:19 50.248252 -14.200193 259 34192ft 503kts
03-Feb-18 15:20 50.186859 -14.395977 259 34192ft 502kts
03-Feb-18 15:21 50.125217 -14.591053 259 34187ft 504kts
03-Feb-18 15:22 50.063085 -14.786136 258 34203ft 505kts
03-Feb-18 15:23 50.002847 -14.981857 267 34189ft 485kts
03-Feb-18 15:24 49.994506 -15.175973 287 34203ft 444kts
03-Feb-18 15:25 49.998118 -15.368696 286 34239ft 456kts
03-Feb-18 15:26 50.000742 -15.564851 286 34226ft 453kts
03-Feb-18 15:27 50.003055 -15.760868 285 34902ft 457kts
03-Feb-18 15:29 50.005015 -15.956073 286 36215ft 454kts
03-Feb-18 15:30 50.006613 -16.151358 286 36224ft 448kts
03-Feb-18 15:31 50.007929 -16.345317 286 36228ft 450kts
03-Feb-18 15:32 50.008909 -16.539617 286 36225ft 451kts
03-Feb-18 15:33 50.009556 -16.733844 285 36234ft 453kts
03-Feb-18 15:34 50.009899 -16.928672 283 36222ft 450kts
03-Feb-18 15:35 50.009889 -17.122850 281 36217ft 450kts
03-Feb-18 15:36 50.009543 -17.317407 281 36222ft 451kts
03-Feb-18 15:36 50.009023 -17.478855 281 36223ft 450kts
03-Feb-18 15:38 50.007920 -17.705611 281 36220ft 451kts
03-Feb-18 15:38 50.006852 -17.868427 281 36223ft 451kts
03-Feb-18 15:40 50.004984 -18.095622 281 36220ft 451kts
03-Feb-18 15:41 50.003037 -18.289691 281 36222ft 451kts
03-Feb-18 15:41 50.001163 -18.451966 281 36222ft 451kts
03-Feb-18 15:42 49.998618 -18.646140 281 36218ft 451kts
03-Feb-18 15:44 49.995264 -18.870958 280 36219ft 451kts
03-Feb-18 15:45 49.992032 -19.065583 279 36222ft 449kts
03-Feb-18 15:45 49.989110 -19.226380 277 36219ft 446kts
03-Feb-18 15:46 49.985303 -19.418394 277 36218ft 447kts
03-Feb-18 15:48 49.980458 -19.643182 277 36218ft 446kts
03-Feb-18 15:48 49.976721 -19.804178 277 36221ft 448kts
03-Feb-18 15:49 49.971963 -19.996454 277 36219ft 447kts
03-Feb-18 15:50 49.966878 -20.189293 277 36218ft 447kts
03-Feb-18 15:51 49.961485 -20.381696 277 36219ft 447kts
03-Feb-18 15:52 49.955767 -20.574259 277 36219ft 447kts
03-Feb-18 15:53 49.949714 -20.767210 276 36222ft 448kts
03-Feb-18 15:54 49.943362 -20.959918 275 36220ft 447kts
03-Feb-18 15:55 49.936726 -21.151564 273 36212ft 445kts
03-Feb-18 15:56 49.929736 -21.343125 273 36044ft 445kts
03-Feb-18 15:57 49.922451 -21.534861 273 36007ft 445kts
03-Feb-18 15:58 49.914852 -21.726377 272 36011ft 446kts
03-Feb-18 15:59 49.906919 -21.918260 272 36008ft 446kts
03-Feb-18 16:00 49.898709 -22.109290 272 35996ft 446kts
03-Feb-18 16:01 49.890156 -22.300863 272 35993ft 446kts
03-Feb-18 16:02 49.881298 -22.492096 272 35992ft 445kts
03-Feb-18 16:03 49.872119 -22.683452 272 35994ft 446kts
03-Feb-18 16:04 49.862647 -22.874605 271 35996ft 445kts
03-Feb-18 16:05 49.852882 -23.065208 270 35997ft 443kts
03-Feb-18 16:06 49.842786 -23.255435 270 35995ft 443kts
03-Feb-18 16:07 49.832398 -23.445607 269 35994ft 443kts
03-Feb-18 16:08 49.821742 -23.634995 270 35994ft 443kts
03-Feb-18 16:09 49.810705 -23.825546 269 35997ft 444kts
03-Feb-18 16:10 49.799418 -24.014997 269 35997ft 444kts
03-Feb-18 16:11 49.787776 -24.205041 269 35996ft 443kts
03-Feb-18 16:12 49.775824 -24.395029 269 35995ft 444kts
03-Feb-18 16:13 49.763600 -24.584328 269 35994ft 443kts
03-Feb-18 16:14 49.751073 -24.773485 268 35999ft 444kts
03-Feb-18 16:15 49.738197 -24.963109 268 35997ft 444kts
03-Feb-18 16:16 49.725047 -25.152518 266 35997ft 442kts
03-Feb-18 16:17 49.711585 -25.341203 266 35997ft 444kts
03-Feb-18 16:18 49.697781 -25.530475 266 35996ft 443kts
03-Feb-18 16:19 49.683712 -25.719142 265 36001ft 444kts
03-Feb-18 16:20 49.669342 -25.907651 265 35999ft 443kts
03-Feb-18 16:21 49.654627 -26.096534 265 35999ft 443kts
03-Feb-18 16:22 49.639628 -26.285002 265 35998ft 443kts
03-Feb-18 16:23 49.624305 -26.473586 265 35997ft 443kts
03-Feb-18 16:24 49.608706 -26.661695 264 35997ft 443kts
03-Feb-18 16:25 49.592782 -26.850302 263 35997ft 445kts
03-Feb-18 16:26 49.576548 -27.038341 262 35997ft 442kts
03-Feb-18 16:27 49.560031 -27.225968 261 36000ft 442kts
03-Feb-18 16:28 49.543284 -27.412745 261 35998ft 442kts
03-Feb-18 16:29 49.526210 -27.599744 261 35997ft 442kts
03-Feb-18 16:30 49.508856 -27.786398 261 36001ft 442kts
03-Feb-18 16:31 49.491153 -27.973440 261 36000ft 442kts
03-Feb-18 16:32 49.473173 -28.160081 261 35999ft 442kts
03-Feb-18 16:33 49.454947 -28.346043 261 35998ft 442kts
03-Feb-18 16:34 49.436385 -28.532250 261 35997ft 442kts
03-Feb-18 16:35 49.417774 -28.715861 260 36001ft 442kts
03-Feb-18 16:36 49.398622 -28.901919 259 35999ft 440kts
03-Feb-18 16:37 49.379304 -29.086446 258 35999ft 439kts
03-Feb-18 16:38 49.359645 -29.271087 258 35997ft 439kts
03-Feb-18 16:39 49.339766 -29.455041 258 35997ft 439kts
03-Feb-18 16:40 49.319518 -29.639569 258 35996ft 439kts
03-Feb-18 16:41 49.299050 -29.823267 257 35999ft 439kts
03-Feb-18 16:42 49.278237 -30.007300 257 35998ft 439kts
03-Feb-18 16:43 49.257108 -30.191391 257 35997ft 439kts
03-Feb-18 16:44 49.235766 -30.374649 257 35996ft 439kts
03-Feb-18 16:45 49.214114 -30.557924 257 35995ft 439kts
03-Feb-18 16:46 49.192101 -30.741596 256 35999ft 439kts
03-Feb-18 16:47 49.169925 -30.924085 256 35998ft 439kts
03-Feb-18 16:48 49.147393 -31.107024 256 35996ft 438kts
03-Feb-18 16:49 49.124593 -31.289547 256 35996ft 438kts
03-Feb-18 16:50 49.101476 -31.472133 256 35994ft 438kts
03-Feb-18 16:51 49.078114 -31.654238 255 35994ft 438kts
03-Feb-18 16:52 49.054410 -31.836577 255 35997ft 438kts
03-Feb-18 16:53 49.030426 -32.018708 256 35996ft 438kts
03-Feb-18 16:54 49.006188 -32.200430 256 35996ft 438kts
03-Feb-18 16:55 48.981663 -32.381990 256 35994ft 439kts
03-Feb-18 16:56 48.956857 -32.563359 256 35993ft 439kts
03-Feb-18 16:57 48.931674 -32.745180 255 35996ft 439kts
03-Feb-18 16:58 48.906334 -32.925898 255 35998ft 438kts
03-Feb-18 16:59 48.880773 -33.106000 256 36000ft 434kts
03-Feb-18 17:00 48.855175 -33.284305 256 36001ft 434kts
03-Feb-18 17:01 48.829184 -33.463198 256 35999ft 434kts
03-Feb-18 17:02 48.802982 -33.641461 256 35997ft 434kts
03-Feb-18 17:03 48.776538 -33.819333 255 36002ft 434kts
03-Feb-18 17:04 48.749678 -33.997943 255 36001ft 434kts
03-Feb-18 17:05 48.722662 -34.175583 255 36000ft 434kts
03-Feb-18 17:06 48.695360 -34.353114 255 35999ft 434kts
03-Feb-18 17:07 48.667754 -34.530657 255 35998ft 434kts
03-Feb-18 17:08 48.639964 -34.707433 254 36003ft 434kts
03-Feb-18 17:09 48.611859 -34.884354 254 36001ft 433kts
03-Feb-18 17:10 48.583592 -35.060378 254 36000ft 430kts
03-Feb-18 17:11 48.555209 -35.235202 254 35999ft 430kts
03-Feb-18 17:12 48.526416 -35.410761 254 35997ft 430kts
03-Feb-18 17:13 48.497472 -35.585432 254 35996ft 430kts
03-Feb-18 17:14 48.468261 -35.759915 253 36000ft 430kts
03-Feb-18 17:15 48.438806 -35.934085 253 36000ft 430kts
03-Feb-18 17:16 48.409050 -36.108284 253 35999ft 430kts
03-Feb-18 17:17 48.378987 -36.282527 253 35997ft 430kts
03-Feb-18 17:18 48.348758 -36.456015 253 35996ft 430kts
03-Feb-18 17:19 48.318223 -36.629554 253 35995ft 430kts
03-Feb-18 17:20 48.287356 -36.803268 252 35999ft 430kts
03-Feb-18 17:21 48.256303 -36.976371 252 35998ft 430kts
03-Feb-18 17:22 48.225152 -37.148456 252 35996ft 426kts
03-Feb-18 17:23 48.193969 -37.318969 251 35995ft 425kts
03-Feb-18 17:24 48.162549 -37.489232 251 35993ft 425kts
03-Feb-18 17:25 48.130866 -37.659353 251 35995ft 425kts
03-Feb-18 17:26 48.099000 -37.828921 251 35998ft 423kts
03-Feb-18 17:27 48.066884 -37.998295 251 35996ft 423kts
03-Feb-18 17:28 48.034642 -38.166814 251 35995ft 423kts
03-Feb-18 17:29 48.002022 -38.335796 251 36052ft 423kts
03-Feb-18 17:30 47.969251 -38.504083 251 36083ft 423kts
03-Feb-18 17:31 47.936709 -38.669737 250 36086ft 423kts
03-Feb-18 17:32 47.903414 -38.837757 250 36087ft 423kts
03-Feb-18 17:33 47.870104 -39.004551 249 36093ft 417kts
03-Feb-18 17:34 47.837090 -39.168340 248 36093ft 411kts
03-Feb-18 17:35 47.803929 -39.331433 249 36093ft 412kts
03-Feb-18 17:36 47.770652 -39.493854 249 36090ft 412kts
03-Feb-18 17:38 47.737026 -39.656624 248 36089ft 412kts
03-Feb-18 17:39 47.703317 -39.818510 248 36094ft 412kts
03-Feb-18 17:40 47.669295 -39.980582 248 36094ft 412kts
03-Feb-18 17:41 47.635005 -40.142627 248 36092ft 412kts
03-Feb-18 17:42 47.600552 -40.304169 248 36089ft 412kts
03-Feb-18 17:43 47.565880 -40.465450 248 36088ft 412kts
03-Feb-18 17:44 47.530979 -40.626532 248 36086ft 412kts
03-Feb-18 17:45 47.495886 -40.787261 247 36093ft 411kts
03-Feb-18 17:46 47.460971 -40.946074 246 36090ft 401kts
03-Feb-18 17:47 47.426708 -41.100581 246 36089ft 393kts
03-Feb-18 17:47 47.398186 -41.228320 246 36088ft 394kts
03-Feb-18 17:49 47.357938 -41.407347 245 36088ft 394kts
03-Feb-18 17:50 47.323310 -41.560213 246 36083ft 394kts
03-Feb-18 17:51 47.288432 -41.713057 245 36088ft 394kts
03-Feb-18 17:51 47.259201 -41.840335 245 36087ft 394kts
03-Feb-18 17:53 47.218090 -42.018071 245 36084ft 394kts
03-Feb-18 17:54 47.182591 -42.170382 245 36085ft 394kts
03-Feb-18 17:54 47.152937 -42.296783 245 36085ft 394kts
03-Feb-18 17:55 47.117082 -42.448673 245 36080ft 394kts
03-Feb-18 17:57 47.074958 -42.625771 245 36074ft 395kts
03-Feb-18 17:57 47.044861 -42.751437 244 36086ft 394kts
03-Feb-18 17:58 47.008296 -42.903088 245 36088ft 397kts
03-Feb-18 17:59 46.971384 -43.055305 244 36081ft 396kts
03-Feb-18 18:00 46.934661 -43.205644 244 36079ft 390kts
03-Feb-18 18:01 46.897892 -43.355007 244 36083ft 394kts
03-Feb-18 18:02 46.860551 -43.505838 244 36089ft 396kts
03-Feb-18 18:03 46.822908 -43.656877 244 36093ft 396kts
03-Feb-18 18:04 46.785241 -43.807003 244 36099ft 395kts
03-Feb-18 18:05 46.747269 -43.957331 244 36099ft 395kts
03-Feb-18 18:06 46.709167 -44.107193 244 36092ft 395kts
03-Feb-18 18:07 46.670861 -44.256853 244 36091ft 395kts
03-Feb-18 18:08 46.632212 -44.406899 244 36953ft 396kts
03-Feb-18 18:09 46.593396 -44.556626 244 37930ft 396kts
03-Feb-18 18:10 46.554408 -44.706049 243 38091ft 395kts
03-Feb-18 18:11 46.515411 -44.854538 243 38094ft 394kts
03-Feb-18 18:12 46.476497 -45.001897 242 38088ft 388kts
03-Feb-18 18:13 46.438104 -45.146274 241 38087ft 381kts
03-Feb-18 18:14 46.399796 -45.289346 241 38088ft 382kts
03-Feb-18 18:15 46.361292 -45.432392 241 38084ft 382kts
03-Feb-18 18:16 46.322622 -45.575197 241 38081ft 381kts
03-Feb-18 18:17 46.283824 -45.717599 240 38090ft 381kts
03-Feb-18 18:18 46.244889 -45.859674 240 38087ft 381kts
03-Feb-18 18:19 46.205711 -46.001789 240 38084ft 381kts
03-Feb-18 18:20 46.166333 -46.143786 240 38082ft 381kts
03-Feb-18 18:21 46.126814 -46.285450 240 38081ft 381kts
03-Feb-18 18:22 46.087271 -46.426394 240 38079ft 381kts
03-Feb-18 18:23 46.047415 -46.567619 240 38075ft 381kts
03-Feb-18 18:24 46.007408 -46.708554 239 38083ft 381kts
03-Feb-18 18:25 45.967325 -46.848985 239 38081ft 379kts
03-Feb-18 18:26 45.927795 -46.986730 239 38094ft 369kts
03-Feb-18 18:27 45.888663 -47.122199 238 38123ft 368kts
03-Feb-18 18:28 45.849297 -47.257776 238 38115ft 368kts
03-Feb-18 18:29 45.809956 -47.392542 238 38114ft 368kts
03-Feb-18 18:30 45.770249 -47.527839 238 38111ft 368kts
03-Feb-18 18:31 45.736661 -47.641727 238 38110ft 368kts
03-Feb-18 18:32 45.696830 -47.776118 238 38116ft 367kts
03-Feb-18 18:33 45.656907 -47.910075 238 38115ft 367kts
03-Feb-18 18:34 45.616734 -48.044158 238 38112ft 367kts
03-Feb-18 18:35 45.576443 -48.177915 238 38110ft 367kts
03-Feb-18 18:36 45.535954 -48.311625 238 38107ft 367kts
03-Feb-18 18:37 45.495305 -48.445149 238 38105ft 367kts
03-Feb-18 18:38 45.454563 -48.578277 238 38102ft 367kts
03-Feb-18 18:39 45.414268 -48.709265 237 38111ft 367kts
03-Feb-18 18:40 45.373292 -48.841783 237 38109ft 367kts
03-Feb-18 18:41 45.332110 -48.974279 237 38105ft 367kts
03-Feb-18 18:42 45.291098 -49.105582 237 38102ft 362kts
03-Feb-18 18:43 45.250385 -49.235243 237 38098ft 359kts
03-Feb-18 18:44 45.209775 -49.363903 237 38096ft 359kts
03-Feb-18 18:45 45.168856 -49.492914 237 38094ft 359kts
03-Feb-18 18:46 45.127781 -49.621780 237 38091ft 359kts
03-Feb-18 18:47 45.086604 -49.750278 237 38102ft 361kts
03-Feb-18 18:48 45.044689 -49.880470 238 38099ft 366kts
03-Feb-18 18:49 45.002568 -50.011651 241 38096ft 372kts
03-Feb-18 18:50 44.991517 -50.163041 256 38097ft 394kts
03-Feb-18 18:51 44.983822 -50.316969 255 38095ft 393kts
03-Feb-18 18:52 44.974840 -50.470275 255 38091ft 393kts
03-Feb-18 18:53 44.965475 -50.624003 255 38090ft 394kts
03-Feb-18 18:54 44.955942 -50.776740 254 38099ft 393kts
03-Feb-18 18:55 44.946144 -50.930491 254 38100ft 391kts
03-Feb-18 18:56 44.936436 -51.080072 254 38094ft 376kts
03-Feb-18 18:57 44.926776 -51.225079 254 38093ft 372kts
03-Feb-18 18:58 44.916907 -51.370809 254 38089ft 373kts
03-Feb-18 18:59 44.906868 -51.516257 254 38086ft 373kts
03-Feb-18 19:00 44.896663 -51.661386 253 38118ft 373kts
03-Feb-18 19:01 44.886319 -51.806663 255 38123ft 373kts
03-Feb-18 19:02 44.889432 -51.956091 260 38120ft 384kts
03-Feb-18 19:03 44.893620 -52.105936 260 38118ft 383kts
03-Feb-18 19:04 44.897650 -52.256085 260 38114ft 383kts
03-Feb-18 19:05 44.901484 -52.406058 260 38115ft 383kts
03-Feb-18 19:06 44.905115 -52.555755 260 38110ft 383kts
03-Feb-18 19:07 44.908552 -52.705640 260 38128ft 383kts
03-Feb-18 19:08 44.911804 -52.855205 259 38125ft 380kts
03-Feb-18 19:09 44.914817 -53.002230 259 38117ft 372kts
03-Feb-18 19:10 44.917558 -53.147199 260 38121ft 370kts
03-Feb-18 19:11 44.920129 -53.291992 259 38113ft 371kts
03-Feb-18 19:12 44.922537 -53.437479 259 38111ft 372kts
03-Feb-18 19:13 44.924755 -53.582703 259 38108ft 370kts
03-Feb-18 19:14 44.926790 -53.727930 259 38122ft 370kts
03-Feb-18 19:15 44.928629 -53.872165 258 38182ft 369kts
03-Feb-18 19:16 44.930301 -54.017306 258 38275ft 369kts
03-Feb-18 19:17 44.931777 -54.162141 259 38271ft 370kts
03-Feb-18 19:18 44.933074 -54.307059 258 38272ft 369kts
03-Feb-18 19:19 44.934182 -54.452522 258 38271ft 371kts
03-Feb-18 19:20 44.935119 -54.597212 259 38267ft 370kts
03-Feb-18 19:21 44.935876 -54.742310 258 38272ft 369kts
03-Feb-18 19:22 44.936435 -54.886774 258 38278ft 370kts
03-Feb-18 19:23 44.936795 -55.031305 259 38271ft 370kts
03-Feb-18 19:24 44.936968 -55.177737 261 38273ft 376kts
03-Feb-18 19:25 44.937015 -55.325335 261 38266ft 376kts
03-Feb-18 19:26 44.936820 -55.473681 264 38173ft 378kts
03-Feb-18 19:27 44.936472 -55.621425 264 38169ft 378kts
03-Feb-18 19:28 44.935917 -55.769316 263 38182ft 377kts
03-Feb-18 19:29 44.935167 -55.917250 263 38181ft 377kts
03-Feb-18 19:30 44.934224 -56.064969 263 38302ft 377kts
03-Feb-18 19:31 44.933086 -56.213312 263 38415ft 378kts
03-Feb-18 19:32 44.931763 -56.361163 263 38411ft 377kts
03-Feb-18 19:33 44.930247 -56.508963 263 38409ft 378kts
03-Feb-18 19:34 44.928563 -56.654986 263 38408ft 378kts
03-Feb-18 19:35 44.926645 -56.804935 263 38420ft 377kts
03-Feb-18 19:36 44.924559 -56.952276 263 38418ft 376kts
03-Feb-18 19:37 44.922297 -57.098831 264 38414ft 373kts
03-Feb-18 19:38 44.919868 -57.244954 264 38412ft 372kts
03-Feb-18 19:39 44.917254 -57.390778 264 38408ft 372kts
03-Feb-18 19:40 44.914450 -57.536660 264 38406ft 372kts
03-Feb-18 19:41 44.911484 -57.681221 264 38422ft 372kts
03-Feb-18 19:42 44.908315 -57.827168 264 38418ft 372kts
03-Feb-18 19:43 44.904964 -57.972651 264 38416ft 372kts
03-Feb-18 19:44 44.901421 -58.118437 264 38413ft 372kts
03-Feb-18 19:45 44.897691 -58.264207 264 38411ft 372kts
03-Feb-18 19:46 44.893781 -58.409740 264 38408ft 372kts
03-Feb-18 19:48 44.889679 -58.555561 264 38405ft 372kts
03-Feb-18 19:49 44.885491 -58.697989 263 38423ft 372kts
03-Feb-18 19:50 44.881045 -58.843130 263 38419ft 371kts
03-Feb-18 19:51 44.876417 -58.987931 264 38414ft 368kts
03-Feb-18 19:52 44.871661 -59.131531 264 38412ft 367kts
03-Feb-18 19:53 44.866718 -59.275070 265 38409ft 367kts
03-Feb-18 19:54 44.861594 -59.418679 265 38406ft 367kts
03-Feb-18 19:55 44.856288 -59.562277 265 38402ft 367kts
03-Feb-18 19:56 44.850817 -59.705357 264 38422ft 367kts
03-Feb-18 19:57 44.845168 -59.848643 264 38417ft 367kts
03-Feb-18 19:58 44.839327 -59.992113 264 38414ft 367kts
03-Feb-18 19:59 44.833298 -60.135695 264 38411ft 367kts
03-Feb-18 19:59 44.828154 -60.254834 264 38409ft 367kts
03-Feb-18 20:00 44.821809 -60.398152 264 38427ft 367kts
03-Feb-18 20:02 44.814170 -60.565471 264 38439ft 367kts
03-Feb-18 20:03 44.807456 -60.708200 264 38457ft 367kts
03-Feb-18 20:03 44.801699 -60.827780 263 38453ft 367kts
03-Feb-18 20:04 44.794647 -60.970728 264 38450ft 367kts
03-Feb-18 20:06 44.786189 -61.137339 265 38447ft 367kts
03-Feb-18 20:06 44.779996 -61.256658 265 38444ft 367kts
03-Feb-18 20:07 44.772420 -61.399366 265 38441ft 367kts
03-Feb-18 20:08 44.764646 -61.542309 265 38438ft 367kts
03-Feb-18 20:09 44.756721 -61.684756 264 38457ft 367kts
03-Feb-18 20:10 44.748609 -61.827474 264 38452ft 366kts
03-Feb-18 20:11 44.740314 -61.970114 264 38449ft 367kts
03-Feb-18 20:12 44.731835 -62.112831 264 38447ft 367kts
03-Feb-18 20:13 44.723199 -62.255196 264 38444ft 367kts
03-Feb-18 20:14 44.714350 -62.398032 264 38441ft 366kts
03-Feb-18 20:15 44.705336 -62.540691 264 38439ft 366kts
03-Feb-18 20:16 44.696174 -62.682761 264 38456ft 367kts
03-Feb-18 20:17 44.686803 -62.825389 264 38452ft 367kts
03-Feb-18 20:18 44.677266 -62.967688 264 38449ft 366kts
03-Feb-18 20:19 44.667599 -63.109243 265 38447ft 365kts
03-Feb-18 20:20 44.657735 -63.251325 265 38443ft 365kts
03-Feb-18 20:21 44.647703 -63.393108 265 38441ft 365kts
03-Feb-18 20:22 44.631025 -63.533221 254 38444ft 369kts
03-Feb-18 20:23 44.593739 -63.667050 252 38447ft 370kts
03-Feb-18 20:24 44.554182 -63.800503 251 38452ft 371kts
03-Feb-18 20:25 44.514272 -63.933214 251 38449ft 371kts
03-Feb-18 20:26 44.474092 -64.065951 251 38465ft 371kts
03-Feb-18 20:27 44.433720 -64.198625 251 38465ft 371kts
03-Feb-18 20:28 44.393122 -64.331354 251 38468ft 371kts
03-Feb-18 20:29 44.352437 -64.463667 251 38466ft 371kts
03-Feb-18 20:30 44.311594 -64.595812 251 38464ft 371kts
03-Feb-18 20:31 44.270763 -64.727257 251 38481ft 372kts
03-Feb-18 20:32 44.229601 -64.859073 251 38479ft 372kts
03-Feb-18 20:33 44.188194 -64.991014 251 38476ft 373kts
03-Feb-18 20:34 44.146357 -65.123664 252 38468ft 373kts
03-Feb-18 20:35 44.104576 -65.255460 252 38456ft 373kts
03-Feb-18 20:36 44.062524 -65.387443 252 38451ft 374kts
03-Feb-18 20:37 44.020331 -65.519204 252 38447ft 374kts
03-Feb-18 20:38 43.978028 -65.650661 251 38446ft 374kts
03-Feb-18 20:39 43.923711 -65.774476 247 38466ft 379kts
03-Feb-18 20:40 43.877119 -65.903885 250 38458ft 374kts
03-Feb-18 20:41 43.833625 -66.034686 251 38455ft 374kts
03-Feb-18 20:42 43.794848 -66.167254 254 38453ft 372kts
03-Feb-18 20:43 43.758477 -66.301085 254 38451ft 371kts
03-Feb-18 20:44 43.721997 -66.434473 254 38449ft 372kts
03-Feb-18 20:45 43.685372 -66.567626 254 38445ft 372kts
03-Feb-18 20:46 43.648567 -66.700723 254 38466ft 373kts
03-Feb-18 20:47 43.611530 -66.833933 254 38460ft 372kts
03-Feb-18 20:48 43.574398 -66.966780 254 38459ft 372kts
03-Feb-18 20:49 43.537050 -67.099643 254 38455ft 372kts
03-Feb-18 20:50 43.499488 -67.232589 255 38450ft 373kts
03-Feb-18 20:51 43.461688 -67.365669 254 38427ft 373kts
03-Feb-18 20:52 43.423951 -67.497816 255 38419ft 373kts
03-Feb-18 20:53 43.385874 -67.630453 255 38403ft 373kts
03-Feb-18 20:54 43.347655 -67.762875 254 38408ft 374kts
03-Feb-18 20:55 43.320371 -67.898118 260 38361ft 370kts
03-Feb-18 20:56 43.283123 -68.028460 244 36705ft 374kts
03-Feb-18 20:57 43.240868 -68.153649 254 35046ft 364kts
03-Feb-18 20:58 43.202894 -68.282019 254 33310ft 367kts
03-Feb-18 20:59 43.163712 -68.412235 253 31516ft 375kts
03-Feb-18 21:00 43.123436 -68.545149 253 29649ft 382kts
03-Feb-18 21:01 43.084249 -68.673686 252 27800ft 372kts
03-Feb-18 21:02 43.044829 -68.802479 252 26111ft 366kts
03-Feb-18 21:03 43.006105 -68.928368 252 24763ft 361kts
03-Feb-18 21:04 42.967541 -69.053097 251 22917ft 352kts
03-Feb-18 21:05 42.929883 -69.174348 251 21152ft 343kts
03-Feb-18 21:06 42.893210 -69.291897 250 19477ft 334kts
03-Feb-18 21:07 42.857163 -69.406934 250 17881ft 330kts
03-Feb-18 21:08 42.836349 -69.527085 254 16383ft 327kts
03-Feb-18 21:09 42.803560 -69.642107 250 14902ft 325kts
03-Feb-18 21:10 42.769979 -69.749271 248 13539ft 322kts
03-Feb-18 21:11 42.729745 -69.857203 230 11816ft 327kts
03-Feb-18 21:12 42.682953 -69.960592 245 10289ft 308kts
03-Feb-18 21:13 42.653802 -70.047152 247 8680ft 234kts
03-Feb-18 21:14 42.627696 -70.127748 247 8692ft 234kts
03-Feb-18 21:15 42.601545 -70.208620 247 8688ft 234kts
03-Feb-18 21:16 42.591535 -70.295708 264 8237ft 234kts
03-Feb-18 21:17 42.587382 -70.383590 264 7566ft 234kts
03-Feb-18 21:18 42.583223 -70.472021 264 6823ft 235kts
03-Feb-18 21:19 42.578985 -70.561082 264 6113ft 237kts
03-Feb-18 21:20 42.583664 -70.650159 268 5399ft 236kts
03-Feb-18 21:21 42.584510 -70.737452 267 4631ft 233kts
03-Feb-18 21:22 42.584469 -70.819096 267 3819ft 213kts
03-Feb-18 21:23 42.574420 -70.891596 224 3248ft 195kts
03-Feb-18 21:24 42.532173 -70.923705 200 2991ft 172kts
03-Feb-18 21:25 42.491818 -70.943530 199 2508ft 161kts
03-Feb-18 21:26 42.452624 -70.962599 199 1696ft 147kts
03-Feb-18 21:27 42.418783 -70.979017 199 950ft 131kts
03-Feb-18 21:28 42.387801 -70.993803 199 354ft 131kts
03-Feb-18 21:29 42.359596 -71.007676 200 20ft 67kts
03-Feb-18 21:30 42.354171 -71.012457 288 24ft 15kts
03-Feb-18 21:31 42.357184 -71.012932 348 24ft 11kts
03-Feb-18 21:32 42.358956 -71.016454 20 21ft 13kts
03-Feb-18 21:33 42.365052 -71.013430 23 21ft 27kts
03-Feb-18 21:34 42.369611 -71.015267 279 18ft 16kts
03-Feb-18 21:35 42.368806 -71.017383 305 18ft 4kts

Navigation Log

Ident Type
Flight plan parsing failed, navigation log unavailable